CFG2EP ELLX-ELLX
Flight info
| Callsign | CFG2EP |
|---|---|
| Flight time | N/A |
| Altitude | 11000 |
| Route | LX24I DCT LX242 DCT LX063 DCT LX06I |
| Aircraft | A320/M-SDE3FGHIRWY/LB1 |
Departure
| Time | 2026-05-04 14:08 |
|---|---|
| Airport | Luxembourg-Findel International Airport (ELLX) |
Arrival
| Time | N/A |
|---|---|
| Airport | Luxembourg-Findel International Airport (ELLX) |
| Time | Latitude | Longitude | Altitude | Speed | Heading |
|---|---|---|---|---|---|
| 2026-05-04 13:41 | 49.63244 | 6.21717 | 1215 ft | 0 kts | 51° |
| 2026-05-04 13:43 | 49.63244 | 6.21718 | 1216 ft | 0 kts | 51° |
| 2026-05-04 13:57 | 49.63261 | 6.21757 | 1217 ft | 6 kts | 55° |
| 2026-05-04 13:57 | 49.63273 | 6.21798 | 1217 ft | 3 kts | 90° |
| 2026-05-04 13:58 | 49.63205 | 6.21874 | 1212 ft | 0 kts | 155° |
| 2026-05-04 13:59 | 49.63202 | 6.21877 | 1212 ft | 1 kts | 154° |
| 2026-05-04 13:59 | 49.63183 | 6.21892 | 1211 ft | 4 kts | 153° |
| 2026-05-04 13:59 | 49.63127 | 6.21807 | 1208 ft | 8 kts | 256° |
| 2026-05-04 14:00 | 49.63105 | 6.21724 | 1208 ft | 9 kts | 244° |
| 2026-05-04 14:00 | 49.63043 | 6.21526 | 1204 ft | 12 kts | 243° |
| 2026-05-04 14:00 | 49.63006 | 6.21416 | 1204 ft | 11 kts | 244° |
| 2026-05-04 14:01 | 49.62977 | 6.21319 | 1205 ft | 9 kts | 245° |
| 2026-05-04 14:01 | 49.62951 | 6.21226 | 1205 ft | 10 kts | 246° |
| 2026-05-04 14:01 | 49.62815 | 6.20799 | 1206 ft | 35 kts | 243° |
| 2026-05-04 14:02 | 49.62633 | 6.20526 | 1196 ft | 38 kts | 225° |
| 2026-05-04 14:02 | 49.62470 | 6.20207 | 1188 ft | 36 kts | 238° |
| 2026-05-04 14:02 | 49.62349 | 6.19883 | 1187 ft | 30 kts | 240° |
| 2026-05-04 14:02 | 49.62286 | 6.19706 | 1183 ft | 16 kts | 240° |
| 2026-05-04 14:03 | 49.62224 | 6.19562 | 1179 ft | 8 kts | 217° |
| 2026-05-04 14:03 | 49.62174 | 6.19566 | 1179 ft | 8 kts | 155° |
| 2026-05-04 14:03 | 49.62168 | 6.19571 | 1177 ft | 0 kts | 154° |
| 2026-05-04 14:06 | 49.62105 | 6.19637 | 1178 ft | 15 kts | 118° |
| 2026-05-04 14:06 | 49.62120 | 6.19746 | 1182 ft | 9 kts | 66° |
| 2026-05-04 14:06 | 49.62126 | 6.19760 | 1183 ft | 0 kts | 60° |
| 2026-05-04 14:07 | 49.62127 | 6.19765 | 1183 ft | 4 kts | 60° |
| 2026-05-04 14:07 | 49.62263 | 6.20138 | 1188 ft | 85 kts | 59° |
| 2026-05-04 14:07 | 49.62682 | 6.21268 | 1200 ft | 153 kts | 61° |
| 2026-05-04 14:07 | 49.63289 | 6.22875 | 1584 ft | 184 kts | 62° |
| 2026-05-04 14:08 | 49.63957 | 6.24550 | 2541 ft | 188 kts | 60° |
| 2026-05-04 14:08 | 49.64701 | 6.26353 | 3122 ft | 211 kts | 60° |
| 2026-05-04 14:08 | 49.65527 | 6.28365 | 3668 ft | 231 kts | 60° |
| 2026-05-04 14:08 | 49.66420 | 6.30557 | 3938 ft | 254 kts | 62° |
| 2026-05-04 14:09 | 49.68283 | 6.35293 | 3983 ft | 258 kts | 56° |
| 2026-05-04 14:09 | 49.69658 | 6.37064 | 3989 ft | 261 kts | 25° |
| 2026-05-04 14:10 | 49.73076 | 6.36760 | 3984 ft | 255 kts | 328° |
| 2026-05-04 14:10 | 49.74593 | 6.35337 | 3981 ft | 254 kts | 323° |
| 2026-05-04 14:10 | 49.75989 | 6.33705 | 3976 ft | 246 kts | 306° |
| 2026-05-04 14:10 | 49.76709 | 6.31429 | 3981 ft | 232 kts | 274° |
| 2026-05-04 14:11 | 49.76552 | 6.29034 | 3981 ft | 224 kts | 248° |
| 2026-05-04 14:11 | 49.75375 | 6.24580 | 3984 ft | 223 kts | 243° |
| 2026-05-04 14:11 | 49.74753 | 6.22368 | 3984 ft | 224 kts | 243° |
| 2026-05-04 14:12 | 49.74134 | 6.20157 | 3982 ft | 224 kts | 243° |
| 2026-05-04 14:12 | 49.73516 | 6.17942 | 3982 ft | 224 kts | 243° |
| 2026-05-04 14:12 | 49.72269 | 6.13515 | 3982 ft | 226 kts | 243° |
| 2026-05-04 14:13 | 49.71644 | 6.11285 | 3981 ft | 225 kts | 243° |
| 2026-05-04 14:13 | 49.71018 | 6.09065 | 3984 ft | 226 kts | 243° |
| 2026-05-04 14:13 | 49.70403 | 6.06876 | 3981 ft | 222 kts | 243° |
| 2026-05-04 14:13 | 49.69799 | 6.04704 | 3979 ft | 219 kts | 243° |
| 2026-05-04 14:14 | 49.69186 | 6.02546 | 3985 ft | 219 kts | 243° |
| 2026-05-04 14:14 | 49.67977 | 5.98275 | 3986 ft | 214 kts | 241° |
| 2026-05-04 14:14 | 49.67066 | 5.96593 | 3877 ft | 199 kts | 209° |
| 2026-05-04 14:15 | 49.64491 | 5.95864 | 3522 ft | 185 kts | 184° |
| 2026-05-04 14:15 | 49.62013 | 5.95656 | 3126 ft | 170 kts | 182° |
| 2026-05-04 14:16 | 49.59691 | 5.95447 | 3013 ft | 166 kts | 183° |
| 2026-05-04 14:16 | 49.58545 | 5.95329 | 3013 ft | 165 kts | 183° |
| 2026-05-04 14:17 | 49.56291 | 5.95644 | 3008 ft | 166 kts | 154° |
| 2026-05-04 14:17 | 49.55407 | 5.96792 | 3017 ft | 170 kts | 130° |
| 2026-05-04 14:17 | 49.54949 | 6.00318 | 3000 ft | 178 kts | 78° |
| 2026-05-04 14:18 | 49.55469 | 6.01951 | 2997 ft | 165 kts | 64° |
| 2026-05-04 14:18 | 49.56633 | 6.05051 | 3014 ft | 169 kts | 64° |
| 2026-05-04 14:19 | 49.57804 | 6.08177 | 2776 ft | 168 kts | 64° |
| 2026-05-04 14:19 | 49.58386 | 6.09731 | 2556 ft | 167 kts | 64° |
| 2026-05-04 14:19 | 49.58958 | 6.11260 | 2337 ft | 160 kts | 63° |
| 2026-05-04 14:19 | 49.59522 | 6.12718 | 2091 ft | 157 kts | 64° |
| 2026-05-04 14:20 | 49.60080 | 6.14281 | 1895 ft | 168 kts | 63° |
| 2026-05-04 14:20 | 49.60655 | 6.15777 | 1634 ft | 157 kts | 63° |
| 2026-05-04 14:20 | 49.61192 | 6.17222 | 1413 ft | 152 kts | 63° |
| 2026-05-04 14:21 | 49.62167 | 6.19881 | 1187 ft | 134 kts | 62° |
| 2026-05-04 14:21 | 49.62714 | 6.21387 | 1631 ft | 182 kts | 61° |
| 2026-05-04 14:21 | 49.63430 | 6.23247 | 2209 ft | 221 kts | 62° |
| 2026-05-04 14:21 | 49.64225 | 6.25299 | 2771 ft | 230 kts | 62° |
| 2026-05-04 14:22 | 49.65071 | 6.27457 | 3611 ft | 241 kts | 61° |
| 2026-05-04 14:22 | 49.65946 | 6.29659 | 3895 ft | 245 kts | 60° |
| 2026-05-04 14:22 | 49.67146 | 6.31521 | 3993 ft | 250 kts | 30° |
| 2026-05-04 14:22 | 49.68803 | 6.32230 | 4008 ft | 249 kts | 358° |
| 2026-05-04 14:23 | 49.71911 | 6.30238 | 4009 ft | 244 kts | 324° |
| 2026-05-04 14:23 | 49.73338 | 6.28814 | 4011 ft | 244 kts | 323° |
| 2026-05-04 14:23 | 49.74645 | 6.27182 | 4008 ft | 239 kts | 303° |
| 2026-05-04 14:24 | 49.75254 | 6.24885 | 4010 ft | 228 kts | 270° |
| 2026-05-04 14:24 | 49.75008 | 6.22534 | 4012 ft | 222 kts | 246° |
| 2026-05-04 14:24 | 49.74438 | 6.20308 | 4006 ft | 222 kts | 243° |
| 2026-05-04 14:24 | 49.73587 | 6.17195 | 4010 ft | 223 kts | 243° |
| 2026-05-04 14:25 | 49.72376 | 6.12844 | 4002 ft | 220 kts | 243° |
| 2026-05-04 14:25 | 49.70930 | 6.07618 | 4003 ft | 210 kts | 243° |
| 2026-05-04 14:25 | 49.69787 | 6.03465 | 4010 ft | 209 kts | 243° |
| 2026-05-04 14:26 | 49.69206 | 6.01385 | 4010 ft | 212 kts | 243° |
| 2026-05-04 14:26 | 49.68616 | 5.99288 | 4011 ft | 213 kts | 243° |
| 2026-05-04 14:26 | 49.67795 | 5.96349 | 4012 ft | 214 kts | 243° |
| 2026-05-04 14:26 | 49.66790 | 5.92802 | 4010 ft | 214 kts | 243° |
| 2026-05-04 14:27 | 49.66194 | 5.90695 | 4012 ft | 214 kts | 242° |
| 2026-05-04 14:27 | 49.65311 | 5.88924 | 4013 ft | 207 kts | 212° |
| 2026-05-04 14:27 | 49.63141 | 5.87719 | 3848 ft | 196 kts | 193° |
| 2026-05-04 14:27 | 49.61025 | 5.86920 | 3642 ft | 203 kts | 193° |
| 2026-05-04 14:28 | 49.58323 | 5.85900 | 3387 ft | 195 kts | 193° |
| 2026-05-04 14:28 | 49.56515 | 5.85232 | 3251 ft | 178 kts | 193° |
| 2026-05-04 14:28 | 49.55316 | 5.84891 | 3039 ft | 176 kts | 177° |
| 2026-05-04 14:28 | 49.54218 | 5.85643 | 3008 ft | 179 kts | 136° |
| 2026-05-04 14:29 | 49.53635 | 5.90040 | 3012 ft | 187 kts | 94° |
| 2026-05-04 14:29 | 49.53878 | 5.97682 | 2998 ft | 193 kts | 68° |
| 2026-05-04 14:30 | 49.54530 | 5.99470 | 3007 ft | 193 kts | 63° |
| 2026-05-04 14:30 | 49.55206 | 6.01249 | 3008 ft | 193 kts | 63° |
| 2026-05-04 14:30 | 49.56559 | 6.04849 | 3001 ft | 194 kts | 63° |
| 2026-05-04 14:31 | 49.57195 | 6.06542 | 2942 ft | 170 kts | 64° |
| 2026-05-04 14:31 | 49.58293 | 6.09478 | 2584 ft | 153 kts | 65° |
| 2026-05-04 14:32 | 49.59340 | 6.12295 | 2222 ft | 151 kts | 62° |
| 2026-05-04 14:32 | 49.59866 | 6.13689 | 2012 ft | 151 kts | 64° |
| 2026-05-04 14:32 | 49.60396 | 6.15092 | 1797 ft | 150 kts | 63° |
| 2026-05-04 14:32 | 49.60910 | 6.16484 | 1593 ft | 149 kts | 62° |
| 2026-05-04 14:33 | 49.61428 | 6.17868 | 1332 ft | 148 kts | 63° |
| 2026-05-04 14:33 | 49.61932 | 6.19226 | 1184 ft | 140 kts | 64° |
| 2026-05-04 14:33 | 49.62388 | 6.20544 | 1221 ft | 161 kts | 64° |
| 2026-05-04 14:33 | 49.63039 | 6.22230 | 1860 ft | 197 kts | 60° |
| 2026-05-04 14:34 | 49.63747 | 6.24022 | 2989 ft | 196 kts | 62° |
| 2026-05-04 14:34 | 49.64455 | 6.25916 | 3579 ft | 217 kts | 63° |
| 2026-05-04 14:34 | 49.65245 | 6.28053 | 3955 ft | 243 kts | 63° |
| 2026-05-04 14:34 | 49.66110 | 6.30378 | 4005 ft | 253 kts | 63° |
| 2026-05-04 14:35 | 49.66990 | 6.32740 | 4009 ft | 255 kts | 63° |
| 2026-05-04 14:35 | 49.67873 | 6.35125 | 4010 ft | 256 kts | 63° |
| 2026-05-04 14:35 | 49.68950 | 6.37292 | 4010 ft | 259 kts | 38° |
| 2026-05-04 14:35 | 49.70627 | 6.38208 | 4010 ft | 260 kts | 359° |